Time;durP1;ratioP1;P1;durP2;ratioP2;P2;SDS_P1;SDS_P2;PMS_P1;PMS_P2;Temp;Humidity;BMP_temperature;BMP_pressure;BME280_temperature;BME280_humidity;BME280_pressure;Samples;Min_cycle;Max_cycle;Signal;HPM_P1;HPM_P2
2022/07/09 00:00:25;;;;;;;10.57;5.00;;;17.50;99.90;;;;;;5077152;28;20274;-79
2022/07/09 00:02:51;;;;;;;13.67;5.10;;;17.60;99.90;;;;;;5074768;28;20287;-80
2022/07/09 00:05:17;;;;;;;8.23;4.50;;;17.50;99.90;;;;;;5075304;28;20298;-79
2022/07/09 00:07:43;;;;;;;9.63;4.53;;;17.50;99.90;;;;;;5075160;28;20173;-78
2022/07/09 00:10:09;;;;;;;10.23;4.83;;;17.50;99.90;;;;;;5074676;28;20637;-79
2022/07/09 00:12:35;;;;;;;12.70;4.60;;;17.60;99.90;;;;;;5074775;28;20208;-80
2022/07/09 00:15:00;;;;;;;13.50;5.20;;;17.60;99.90;;;;;;5075146;28;20219;-80
2022/07/09 00:17:26;;;;;;;10.70;5.40;;;17.60;99.90;;;;;;5074868;28;20645;-79
2022/07/09 00:19:52;;;;;;;11.43;5.27;;;17.50;99.90;;;;;;5074714;28;20583;-80
2022/07/09 00:22:18;;;;;;;14.10;5.23;;;17.50;99.90;;;;;;5073991;28;20263;-78
2022/07/09 00:24:43;;;;;;;12.50;4.87;;;17.50;99.90;;;;;;5072941;28;20227;-80
2022/07/09 00:27:09;;;;;;;7.70;5.17;;;17.50;99.90;;;;;;5073401;28;20789;-79
2022/07/09 00:29:35;;;;;;;12.33;4.90;;;17.50;99.90;;;;;;5073662;28;20180;-79
2022/07/09 00:32:00;;;;;;;12.97;5.03;;;17.50;99.90;;;;;;5073004;28;20196;-79
2022/07/09 00:34:26;;;;;;;11.00;5.17;;;17.50;99.90;;;;;;5073365;28;20556;-80
2022/07/09 00:36:52;;;;;;;8.83;5.43;;;17.40;99.90;;;;;;5077868;28;20219;-79
2022/07/09 00:39:17;;;;;;;14.53;5.27;;;17.50;99.90;;;;;;5077623;28;20668;-79
2022/07/09 00:41:43;;;;;;;14.47;5.00;;;17.40;99.90;;;;;;5077378;28;20709;-81
2022/07/09 00:44:09;;;;;;;10.67;4.87;;;17.40;99.90;;;;;;5078035;28;20212;-82
2022/07/09 00:46:34;;;;;;;9.30;4.97;;;17.50;99.90;;;;;;5077795;28;20176;-80
2022/07/09 00:49:06;;;;;;;10.97;5.03;;;17.50;99.90;;;;;;5077312;28;20220;-79
2022/07/09 00:51:32;;;;;;;11.40;4.90;;;17.50;99.90;;;;;;5077353;28;20203;-79
2022/07/09 00:53:59;;;;;;;7.90;4.27;;;17.50;99.90;;;;;;5077668;28;20197;-80
2022/07/09 00:56:27;;;;;;;10.03;4.63;;;17.40;99.90;;;;;;5077950;28;20547;-79
2022/07/09 00:58:53;;;;;;;10.53;4.77;;;17.30;99.90;;;;;;5076913;28;20196;-79
2022/07/09 01:01:19;;;;;;;10.03;5.10;;;17.20;99.90;;;;;;5077050;28;20183;-78
2022/07/09 01:03:45;;;;;;;10.60;5.10;;;17.20;99.90;;;;;;5076718;28;20188;-79
2022/07/09 01:06:10;;;;;;;11.47;5.13;;;17.10;99.90;;;;;;5077590;28;20267;-78
2022/07/09 01:08:37;;;;;;;9.23;5.53;;;17.10;99.90;;;;;;5076980;28;20195;-80
2022/07/09 01:11:03;;;;;;;13.00;6.03;;;17.10;99.90;;;;;;5076460;28;20640;-78
2022/07/09 01:13:28;;;;;;;9.30;6.53;;;17.00;99.90;;;;;;5076824;28;20235;-80
2022/07/09 01:15:54;;;;;;;13.80;7.30;;;17.00;99.90;;;;;;5077272;28;20625;-80
2022/07/09 01:18:20;;;;;;;13.70;7.03;;;17.00;99.90;;;;;;5077042;28;20780;-79
2022/07/09 01:20:45;;;;;;;12.63;6.57;;;17.00;99.90;;;;;;5076684;28;20172;-80
2022/07/09 01:23:11;;;;;;;15.03;7.30;;;16.90;99.90;;;;;;5076019;28;20242;-81
2022/07/09 01:25:41;;;;;;;12.07;6.60;;;17.00;99.90;;;;;;5077209;28;20177;-81
2022/07/09 01:28:09;;;;;;;10.70;6.80;;;16.90;99.90;;;;;;5076944;28;20183;-77
2022/07/09 01:30:36;;;;;;;15.27;7.67;;;16.90;99.90;;;;;;5076580;28;20180;-79
2022/07/09 01:33:02;;;;;;;9.03;6.37;;;16.90;99.90;;;;;;5075877;28;20212;-79
2022/07/09 01:35:28;;;;;;;14.13;7.07;;;16.80;99.90;;;;;;5078205;28;20229;-80
2022/07/09 01:37:53;;;;;;;14.97;7.87;;;16.80;99.90;;;;;;5077290;28;20176;-81
2022/07/09 01:40:20;;;;;;;12.10;6.93;;;16.90;99.90;;;;;;5076031;28;20180;-79
2022/07/09 01:42:47;;;;;;;15.73;7.57;;;16.90;99.90;;;;;;5075930;28;20197;-81
2022/07/09 01:45:14;;;;;;;13.70;7.03;;;16.80;99.90;;;;;;5075955;28;20180;-80
2022/07/09 01:47:40;;;;;;;14.90;7.40;;;16.90;99.90;;;;;;5075632;28;20191;-80
2022/07/09 01:50:07;;;;;;;15.67;7.47;;;16.90;99.90;;;;;;5075770;28;20176;-80
2022/07/09 01:52:32;;;;;;;13.00;6.77;;;16.90;99.90;;;;;;5074632;28;20254;-78
2022/07/09 01:54:58;;;;;;;16.30;7.87;;;16.90;99.90;;;;;;5074546;28;20609;-81
2022/07/09 01:57:24;;;;;;;13.73;7.23;;;17.00;99.90;;;;;;5074466;28;20200;-82
2022/07/09 01:59:49;;;;;;;18.20;7.13;;;17.00;99.90;;;;;;5073939;28;20204;-81
2022/07/09 02:02:15;;;;;;;17.03;7.03;;;17.00;99.90;;;;;;5074267;28;20173;-79
2022/07/09 02:04:41;;;;;;;16.00;7.50;;;17.00;99.90;;;;;;5074094;28;20519;-81
2022/07/09 02:07:06;;;;;;;11.77;7.07;;;17.00;99.90;;;;;;5073889;28;20234;-80
2022/07/09 02:09:32;;;;;;;15.70;7.40;;;17.00;99.90;;;;;;5073870;28;20260;-80
2022/07/09 02:11:58;;;;;;;12.43;6.80;;;16.90;99.90;;;;;;5073625;28;20197;-80
2022/07/09 02:14:24;;;;;;;12.03;6.83;;;16.90;99.90;;;;;;5074468;28;20247;-80
2022/07/09 02:16:50;;;;;;;20.07;7.93;;;16.90;99.90;;;;;;5074092;28;20264;-81
2022/07/09 02:19:15;;;;;;;14.70;7.50;;;16.90;99.90;;;;;;5074194;28;20220;-80
2022/07/09 02:21:41;;;;;;;17.37;7.33;;;16.80;99.90;;;;;;5074163;28;20176;-80
2022/07/09 02:24:07;;;;;;;14.07;7.93;;;16.90;99.90;;;;;;5073931;28;20631;-79
2022/07/09 02:26:33;;;;;;;18.27;8.27;;;16.90;99.90;;;;;;5074360;28;20179;-80
2022/07/09 02:28:59;;;;;;;16.47;7.87;;;16.90;99.90;;;;;;5073988;28;20180;-81
2022/07/09 02:31:26;;;;;;;15.30;7.13;;;17.00;99.90;;;;;;5073828;28;20263;-80
2022/07/09 02:33:52;;;;;;;15.57;7.60;;;17.00;99.90;;;;;;5074010;28;20687;-80
2022/07/09 02:36:18;;;;;;;13.37;8.10;;;17.00;99.90;;;;;;5073960;28;20165;-80
2022/07/09 02:38:44;;;;;;;19.17;7.93;;;17.00;99.90;;;;;;5075182;28;20176;-80
2022/07/09 02:41:09;;;;;;;19.93;8.00;;;17.00;99.90;;;;;;5073489;28;20732;-80
2022/07/09 02:43:35;;;;;;;19.37;7.53;;;17.00;99.90;;;;;;5073949;28;20222;-81
2022/07/09 02:46:01;;;;;;;12.60;7.33;;;17.00;99.90;;;;;;5073546;28;20265;-81
2022/07/09 02:48:27;;;;;;;15.10;7.63;;;17.00;99.90;;;;;;5073456;28;20729;-80
2022/07/09 02:50:53;;;;;;;15.17;7.43;;;17.00;99.90;;;;;;5073377;28;20180;-80
2022/07/09 02:53:19;;;;;;;15.90;7.23;;;17.00;99.90;;;;;;5073248;28;20211;-80
2022/07/09 02:55:45;;;;;;;13.77;7.57;;;16.90;99.90;;;;;;5074226;28;20264;-80
2022/07/09 02:58:11;;;;;;;17.23;7.20;;;17.00;99.90;;;;;;5072851;28;20165;-80
2022/07/09 03:00:39;;;;;;;18.83;7.37;;;17.00;99.90;;;;;;5073557;28;20168;-81
2022/07/09 03:03:05;;;;;;;15.80;7.30;;;16.90;99.90;;;;;;5073027;28;20196;-79
2022/07/09 03:05:31;;;;;;;12.93;6.70;;;17.00;99.90;;;;;;5073542;28;20184;-79
2022/07/09 03:07:57;;;;;;;20.37;7.27;;;17.00;99.90;;;;;;5072811;28;20175;-80
2022/07/09 03:10:22;;;;;;;16.33;6.33;;;17.00;99.90;;;;;;5073386;28;20633;-78
2022/07/09 03:12:48;;;;;;;13.40;6.50;;;17.10;99.90;;;;;;5072590;28;20211;-79
2022/07/09 03:15:16;;;;;;;13.57;6.63;;;17.00;99.90;;;;;;5073618;28;20637;-81
2022/07/09 03:17:42;;;;;;;13.57;6.43;;;16.90;99.90;;;;;;5073137;28;20200;-80
2022/07/09 03:20:09;;;;;;;14.50;6.30;;;16.80;99.90;;;;;;5074420;28;20177;-79
2022/07/09 03:22:35;;;;;;;14.37;6.40;;;16.80;99.90;;;;;;5073109;28;20204;-79
2022/07/09 03:25:01;;;;;;;11.50;5.47;;;16.80;99.90;;;;;;5073590;28;20196;-79
2022/07/09 03:27:27;;;;;;;13.30;6.13;;;16.90;99.90;;;;;;5073504;28;20256;-80
2022/07/09 03:29:52;;;;;;;14.53;6.20;;;16.90;99.90;;;;;;5073167;28;20245;-82
2022/07/09 03:32:18;;;;;;;12.23;5.97;;;16.90;99.90;;;;;;5072509;28;20288;-80
2022/07/09 03:34:44;;;;;;;14.40;5.50;;;16.90;99.90;;;;;;5073464;28;20188;-81
2022/07/09 03:37:09;;;;;;;16.93;6.40;;;16.90;99.90;;;;;;5073472;28;20173;-80
2022/07/09 03:39:35;;;;;;;12.23;5.60;;;17.00;99.90;;;;;;5072845;28;20188;-80
2022/07/09 03:42:01;;;;;;;10.43;5.80;;;16.90;99.90;;;;;;5072857;28;20194;-80
2022/07/09 03:44:26;;;;;;;11.73;5.63;;;16.90;99.90;;;;;;5073213;28;20246;-79
2022/07/09 03:46:52;;;;;;;14.07;5.20;;;16.90;99.90;;;;;;5072945;28;20177;-81
2022/07/09 03:49:18;;;;;;;9.57;5.20;;;16.90;99.90;;;;;;5073244;28;20191;-78
2022/07/09 03:51:44;;;;;;;11.23;5.30;;;16.80;99.90;;;;;;5072625;28;20189;-79
2022/07/09 03:54:10;;;;;;;13.70;5.90;;;16.80;99.90;;;;;;5073056;28;20184;-80
2022/07/09 03:56:36;;;;;;;12.27;6.13;;;16.90;99.90;;;;;;5072878;28;20701;-80
2022/07/09 03:59:02;;;;;;;11.77;5.87;;;16.90;99.90;;;;;;5072831;28;20259;-79
2022/07/09 04:01:28;;;;;;;9.77;5.40;;;16.90;99.90;;;;;;5072361;28;20164;-82
2022/07/09 04:03:53;;;;;;;14.43;5.87;;;16.90;99.90;;;;;;5072923;28;20185;-81
2022/07/09 04:06:20;;;;;;;11.80;5.63;;;16.80;99.90;;;;;;5072585;28;20179;-81
2022/07/09 04:08:46;;;;;;;8.30;5.17;;;16.80;99.90;;;;;;5072330;28;20171;-82
2022/07/09 04:11:11;;;;;;;16.50;5.53;;;16.90;99.90;;;;;;5072410;28;20172;-81
2022/07/09 04:13:37;;;;;;;10.10;5.37;;;16.80;99.90;;;;;;5072554;28;20227;-79
2022/07/09 04:16:03;;;;;;;11.97;5.93;;;16.90;99.90;;;;;;5072781;28;20540;-81
2022/07/09 04:18:29;;;;;;;11.53;5.37;;;16.90;99.90;;;;;;5073009;28;20172;-79
2022/07/09 04:20:54;;;;;;;12.10;5.40;;;16.90;99.90;;;;;;5075047;28;20171;-79
2022/07/09 04:23:20;;;;;;;8.67;5.13;;;16.80;99.90;;;;;;5074687;28;20207;-78
2022/07/09 04:25:47;;;;;;;11.27;5.43;;;16.90;99.90;;;;;;5076744;28;20179;-81
2022/07/09 04:28:13;;;;;;;9.50;5.77;;;16.70;99.90;;;;;;5073872;28;20548;-81
2022/07/09 04:30:40;;;;;;;10.73;4.83;;;16.70;99.90;;;;;;5074776;28;20207;-80
2022/07/09 04:33:06;;;;;;;8.37;4.97;;;16.70;99.90;;;;;;5073997;28;20207;-79
2022/07/09 04:35:31;;;;;;;12.70;5.00;;;16.80;99.90;;;;;;5074362;28;20671;-79
2022/07/09 04:37:57;;;;;;;12.53;5.40;;;16.80;99.90;;;;;;5076494;28;20165;-80
2022/07/09 04:40:23;;;;;;;12.93;5.53;;;16.90;99.90;;;;;;5074784;28;20637;-81
2022/07/09 04:42:48;;;;;;;13.23;6.00;;;16.90;99.90;;;;;;5075938;28;20664;-82
2022/07/09 04:45:15;;;;;;;10.40;5.67;;;16.90;99.90;;;;;;5077495;28;20256;-81
2022/07/09 04:47:41;;;;;;;12.23;5.20;;;16.80;99.90;;;;;;5075863;28;20223;-80
2022/07/09 04:50:07;;;;;;;10.20;5.00;;;16.90;99.90;;;;;;5075680;28;20173;-80
2022/07/09 04:52:32;;;;;;;9.07;4.80;;;16.90;99.90;;;;;;5073646;28;20665;-79
2022/07/09 04:54:58;;;;;;;10.97;5.10;;;17.00;99.90;;;;;;5073649;28;20177;-78
2022/07/09 04:57:23;;;;;;;8.63;5.00;;;17.00;99.90;;;;;;5075909;28;20264;-81
2022/07/09 04:59:49;;;;;;;11.57;5.37;;;17.00;99.90;;;;;;5076144;28;20181;-81
2022/07/09 05:02:15;;;;;;;13.07;5.33;;;17.00;99.90;;;;;;5076731;28;20176;-79
2022/07/09 05:04:40;;;;;;;12.93;5.70;;;17.00;99.90;;;;;;5075177;28;20196;-81
2022/07/09 05:07:06;;;;;;;11.73;5.70;;;17.00;99.90;;;;;;5075743;28;20172;-81
2022/07/09 05:09:32;;;;;;;14.70;5.20;;;16.90;99.90;;;;;;5076208;28;20172;-80
2022/07/09 05:11:57;;;;;;;9.30;5.20;;;17.00;99.90;;;;;;5074665;28;20608;-80
2022/07/09 05:14:23;;;;;;;9.17;5.30;;;17.00;99.90;;;;;;5072432;28;20219;-79
2022/07/09 05:16:49;;;;;;;12.80;5.63;;;17.00;99.90;;;;;;5072714;28;20264;-81
2022/07/09 05:19:15;;;;;;;13.13;5.67;;;17.20;99.90;;;;;;5072476;28;20180;-80
2022/07/09 05:21:41;;;;;;;11.33;5.87;;;17.20;99.90;;;;;;5074980;28;20181;-81
2022/07/09 05:24:07;;;;;;;11.63;5.17;;;17.30;99.90;;;;;;5075886;28;20197;-80
2022/07/09 05:26:36;;;;;;;8.47;5.30;;;17.20;99.90;;;;;;5076538;28;20180;-81
2022/07/09 05:29:04;;;;;;;10.17;5.50;;;17.20;99.90;;;;;;5076108;28;20176;-80
2022/07/09 05:31:30;;;;;;;14.23;6.87;;;17.20;99.90;;;;;;5076261;28;20177;-81
2022/07/09 05:33:56;;;;;;;10.83;5.87;;;17.30;99.90;;;;;;5089993;22;20722;-87
2022/07/09 05:36:22;;;;;;;15.13;6.43;;;17.40;99.90;;;;;;5039243;28;20185;-86
2022/07/09 05:38:47;;;;;;;13.53;5.77;;;17.40;99.90;;;;;;5040626;28;20186;-86
2022/07/09 05:41:14;;;;;;;17.63;6.27;;;17.50;99.90;;;;;;5059763;28;20211;-86
2022/07/09 05:43:39;;;;;;;14.90;6.27;;;17.50;99.90;;;;;;5060864;28;20181;-86
2022/07/09 05:46:05;;;;;;;15.83;6.20;;;17.60;99.90;;;;;;5059208;28;20173;-86
2022/07/09 05:50:56;;;;;;;11.87;6.97;;;17.60;99.90;;;;;;5079599;23;20650;-87
2022/07/09 05:53:22;;;;;;;13.20;6.63;;;17.70;99.90;;;;;;5077612;28;20281;-85
2022/07/09 05:55:47;;;;;;;14.67;7.10;;;17.70;99.90;;;;;;5076266;28;20544;-87
2022/07/09 05:58:14;;;;;;;15.13;7.60;;;17.80;99.90;;;;;;5077698;28;20176;-86
2022/07/09 06:00:40;;;;;;;13.53;7.93;;;17.80;99.90;;;;;;5074222;28;20187;-86
2022/07/09 06:03:06;;;;;;;15.60;7.83;;;17.70;99.90;;;;;;5074137;28;20196;-86
2022/07/09 06:05:31;;;;;;;11.63;7.37;;;17.70;99.90;;;;;;5075226;28;20678;-88
2022/07/09 06:07:57;;;;;;;16.73;7.30;;;18.00;99.90;;;;;;5073581;28;20176;-86
2022/07/09 06:10:23;;;;;;;14.67;6.97;;;18.30;99.90;;;;;;5075574;28;20325;-83
2022/07/09 06:12:48;;;;;;;16.10;8.17;;;18.30;99.90;;;;;;5079304;28;20211;-82
2022/07/09 06:15:14;;;;;;;13.00;7.17;;;18.40;99.90;;;;;;5078811;28;20245;-84
2022/07/09 06:17:39;;;;;;;11.63;6.93;;;18.50;99.90;;;;;;5078136;28;20164;-84
2022/07/09 06:20:06;;;;;;;12.17;7.00;;;18.40;99.90;;;;;;5078172;28;20603;-83
2022/07/09 06:22:32;;;;;;;12.20;5.83;;;18.70;99.90;;;;;;5080489;28;20264;-84
2022/07/09 06:25:01;;;;;;;9.37;6.47;;;18.70;99.90;;;;;;5078472;28;20184;-83
2022/07/09 06:27:26;;;;;;;14.03;6.53;;;18.60;99.90;;;;;;5078787;28;20179;-83
2022/07/09 06:29:52;;;;;;;7.80;5.40;;;18.60;99.90;;;;;;5077122;28;20176;-84
2022/07/09 06:32:18;;;;;;;10.60;5.60;;;18.80;99.90;;;;;;5076197;28;20277;-83
2022/07/09 06:34:43;;;;;;;8.32;5.68;;;19.00;99.90;;;;;;5075361;28;20184;-83
2022/07/09 06:37:09;;;;;;;11.85;5.32;;;19.20;99.90;;;;;;5077026;28;20616;-84
2022/07/09 06:39:48;;;;;;;6.82;5.10;;;19.10;99.90;;;;;;5078387;28;20674;-83
2022/07/09 06:42:16;;;;;;;11.32;5.10;;;19.20;99.90;;;;;;5078228;28;20157;-84
2022/07/09 06:44:42;;;;;;;12.43;5.63;;;19.10;99.90;;;;;;5078352;28;20198;-83
2022/07/09 06:47:08;;;;;;;9.70;5.50;;;19.50;99.90;;;;;;5078979;28;20179;-84
2022/07/09 06:49:34;;;;;;;10.10;4.97;;;19.60;99.90;;;;;;5079157;28;20228;-84
2022/07/09 06:52:00;;;;;;;9.15;4.38;;;19.40;99.90;;;;;;5076640;28;20201;-84
2022/07/09 06:54:26;;;;;;;8.05;4.40;;;19.40;99.90;;;;;;5074426;28;20222;-85
2022/07/09 06:56:52;;;;;;;5.70;4.05;;;20.00;99.90;;;;;;5074674;28;20176;-85
2022/07/09 06:59:18;;;;;;;10.55;4.30;;;20.20;99.90;;;;;;5074249;28;20208;-84
2022/07/09 07:01:47;;;;;;;9.10;5.15;;;20.90;99.90;;;;;;5074013;28;20184;-84
2022/07/09 07:04:14;;;;;;;5.78;3.90;;;20.60;99.90;;;;;;5073585;28;20197;-84
2022/07/09 07:06:40;;;;;;;7.10;3.78;;;20.70;99.90;;;;;;5073340;28;20169;-83
2022/07/09 07:09:06;;;;;;;7.55;4.50;;;21.30;99.90;;;;;;5073536;28;20180;-85
2022/07/09 07:11:33;;;;;;;4.70;4.15;;;21.80;99.90;;;;;;5073406;28;20177;-85
2022/07/09 07:13:58;;;;;;;5.05;4.20;;;21.00;99.90;;;;;;5072443;28;20283;-84
2022/07/09 07:16:24;;;;;;;9.07;3.70;;;20.70;99.90;;;;;;5074453;28;20207;-84
2022/07/09 07:18:50;;;;;;;5.00;3.45;;;21.10;99.90;;;;;;5075033;28;20196;-85
2022/07/09 07:21:15;;;;;;;6.22;3.78;;;20.90;99.90;;;;;;5074541;28;20177;-84
2022/07/09 07:23:41;;;;;;;6.40;4.05;;;20.60;99.90;;;;;;5074835;28;20613;-84
2022/07/09 07:26:07;;;;;;;6.93;3.50;;;21.20;99.90;;;;;;5074416;28;20237;-84
2022/07/09 07:28:33;;;;;;;6.93;4.03;;;21.70;99.90;;;;;;5074520;28;20226;-85
2022/07/09 07:30:59;;;;;;;4.38;3.08;;;21.70;99.90;;;;;;5074379;28;20176;-85
2022/07/09 07:33:25;;;;;;;3.42;2.40;;;22.00;99.90;;;;;;5074607;28;20212;-85
2022/07/09 07:35:50;;;;;;;7.47;3.20;;;21.80;99.90;;;;;;5074702;28;20169;-85
2022/07/09 07:38:16;;;;;;;4.18;2.72;;;21.40;99.90;;;;;;5074996;28;20263;-84
2022/07/09 07:40:42;;;;;;;3.10;2.75;;;21.20;99.90;;;;;;5075306;28;20168;-84
2022/07/09 07:43:11;;;;;;;4.38;2.83;;;21.70;99.90;;;;;;5075114;28;20283;-84
2022/07/09 07:45:37;;;;;;;2.42;2.15;;;22.00;99.90;;;;;;5074971;28;20175;-85
2022/07/09 07:48:03;;;;;;;3.47;2.10;;;22.10;99.90;;;;;;5074277;28;20263;-85
2022/07/09 07:50:29;;;;;;;4.57;2.40;;;21.70;99.90;;;;;;5074016;28;20604;-85
2022/07/09 07:52:54;;;;;;;3.60;2.35;;;22.00;99.90;;;;;;5075305;28;20299;-84
2022/07/09 07:55:20;;;;;;;3.35;1.75;;;21.70;99.90;;;;;;5075437;28;20165;-84
2022/07/09 07:57:45;;;;;;;4.78;2.25;;;22.30;99.90;;;;;;5075494;28;20541;-84
2022/07/09 08:00:12;;;;;;;2.50;1.73;;;22.30;99.90;;;;;;5075991;28;20175;-84
2022/07/09 08:02:38;;;;;;;2.08;1.88;;;21.90;99.90;;;;;;5075809;28;20255;-85
2022/07/09 08:05:04;;;;;;;3.60;1.80;;;21.80;99.90;;;;;;5075139;28;20230;-84
2022/07/09 08:07:30;;;;;;;3.70;1.70;;;21.80;99.90;;;;;;5075179;28;20202;-85
2022/07/09 08:09:56;;;;;;;4.45;1.40;;;21.70;99.90;;;;;;5076883;28;20676;-85
2022/07/09 08:12:21;;;;;;;1.95;1.50;;;21.60;99.90;;;;;;5074308;28;20412;-85
2022/07/09 08:14:47;;;;;;;3.95;1.90;;;21.50;99.90;;;;;;5074146;28;20172;-85
2022/07/09 08:17:13;;;;;;;5.10;1.90;;;21.50;99.90;;;;;;5073937;28;20172;-85
2022/07/09 08:19:38;;;;;;;4.15;1.70;;;21.40;99.90;;;;;;5074696;28;20169;-85
2022/07/09 08:22:04;;;;;;;3.55;1.90;;;21.70;99.90;;;;;;5074882;28;20184;-84
2022/07/09 08:24:30;;;;;;;3.72;1.90;;;21.70;99.90;;;;;;5073995;28;20200;-84
2022/07/09 08:26:56;;;;;;;2.30;2.10;;;21.60;99.90;;;;;;5075227;28;20709;-84
2022/07/09 08:29:22;;;;;;;2.00;1.65;;;21.40;99.90;;;;;;5075343;28;20176;-84
2022/07/09 08:31:49;;;;;;;3.05;1.65;;;21.50;99.90;;;;;;5073847;28;20200;-85
2022/07/09 08:34:15;;;;;;;3.47;1.40;;;21.80;99.90;;;;;;5074960;28;20192;-83
2022/07/09 08:36:41;;;;;;;3.10;1.50;;;22.00;99.90;;;;;;5075245;28;20173;-83
2022/07/09 08:39:06;;;;;;;2.33;1.67;;;22.20;99.90;;;;;;5075293;28;20198;-83
2022/07/09 08:41:32;;;;;;;1.50;1.40;;;22.30;99.90;;;;;;5074388;28;20172;-82
2022/07/09 08:43:58;;;;;;;3.72;2.33;;;22.40;99.90;;;;;;5076913;28;20208;-83
2022/07/09 08:46:24;;;;;;;3.42;1.60;;;22.80;99.90;;;;;;5074607;28;20248;-82
2022/07/09 08:48:50;;;;;;;1.55;1.38;;;22.90;99.90;;;;;;5075481;28;20215;-82
2022/07/09 08:51:17;;;;;;;1.20;1.20;;;23.00;99.90;;;;;;5076030;28;20161;-82
2022/07/09 08:53:44;;;;;;;2.45;1.70;;;23.00;99.90;;;;;;5074500;28;20215;-82
2022/07/09 08:56:11;;;;;;;2.55;1.38;;;23.20;99.90;;;;;;5077019;28;20267;-83
2022/07/09 08:58:40;;;;;;;2.78;1.27;;;22.90;99.90;;;;;;5078835;28;20229;-83
2022/07/09 09:01:08;;;;;;;4.13;1.33;;;22.90;99.90;;;;;;5078090;28;20191;-82
2022/07/09 09:03:35;;;;;;;2.30;1.70;;;22.80;99.90;;;;;;5077918;28;20283;-83
2022/07/09 09:06:06;;;;;;;3.20;1.20;;;22.80;99.90;;;;;;5077969;28;20318;-83
2022/07/09 09:08:37;;;;;;;2.40;1.40;;;22.90;99.90;;;;;;5077744;28;20417;-83
2022/07/09 09:11:08;;;;;;;1.30;1.27;;;22.70;99.90;;;;;;5078253;28;20168;-82
2022/07/09 09:13:40;;;;;;;1.27;1.15;;;22.50;99.90;;;;;;5078682;28;20208;-82
2022/07/09 09:16:08;;;;;;;1.67;1.20;;;22.40;99.90;;;;;;5078457;28;20222;-82
2022/07/09 09:18:41;;;;;;;1.52;1.10;;;22.30;99.90;;;;;;5079427;28;20636;-82
2022/07/09 09:21:08;;;;;;;2.25;1.30;;;22.50;99.90;;;;;;5078289;28;20260;-83
2022/07/09 09:23:40;;;;;;;1.52;1.40;;;22.20;99.90;;;;;;5079666;28;20690;-83
2022/07/09 09:26:17;;;;;;;1.70;1.10;;;22.30;99.90;;;;;;5079559;28;20200;-82
2022/07/09 09:28:52;;;;;;;1.45;1.10;;;22.10;99.90;;;;;;5077377;28;20199;-82
2022/07/09 09:31:28;;;;;;;1.75;1.20;;;22.10;99.90;;;;;;5077199;28;20607;-83
2022/07/09 09:33:56;;;;;;;2.13;1.40;;;22.00;99.90;;;;;;5078640;28;20249;-82
2022/07/09 09:36:33;;;;;;;2.75;1.63;;;22.00;99.90;;;;;;5077317;28;20177;-83
2022/07/09 09:39:20;;;;;;;1.85;1.20;;;22.20;99.90;;;;;;5078988;28;20169;-83
2022/07/09 09:41:48;;;;;;;3.72;1.73;;;22.00;99.90;;;;;;5078211;28;20611;-82
2022/07/09 09:44:20;;;;;;;1.52;1.40;;;21.90;99.90;;;;;;5079794;28;20656;-82
2022/07/09 09:46:46;;;;;;;1.73;1.38;;;21.80;99.90;;;;;;5079277;28;20164;-82
2022/07/09 09:49:15;;;;;;;3.75;1.48;;;22.00;99.90;;;;;;5079396;28;20667;-82
2022/07/09 09:52:03;;;;;;;1.65;1.48;;;22.10;99.90;;;;;;5081228;28;20173;-82
2022/07/09 09:54:31;;;;;;;1.75;1.30;;;22.20;99.90;;;;;;5079911;28;20196;-82
2022/07/09 09:56:58;;;;;;;4.07;1.35;;;22.30;99.90;;;;;;5080790;28;20180;-82
2022/07/09 09:59:24;;;;;;;3.15;1.20;;;22.30;99.90;;;;;;5080749;28;20251;-81
2022/07/09 10:01:50;;;;;;;1.60;1.50;;;22.50;99.90;;;;;;5081961;28;20204;-82
2022/07/09 10:04:16;;;;;;;2.03;1.50;;;22.50;99.90;;;;;;5081359;28;20676;-82
2022/07/09 10:06:42;;;;;;;4.35;1.40;;;22.40;99.90;;;;;;5078835;28;20246;-81
2022/07/09 10:09:12;;;;;;;3.95;2.03;;;22.50;99.90;;;;;;5079810;28;20180;-81
2022/07/09 10:11:42;;;;;;;3.03;1.67;;;22.40;99.90;;;;;;5080356;28;20169;-82
2022/07/09 10:14:14;;;;;;;1.67;1.58;;;22.40;99.90;;;;;;5081907;28;20280;-82
2022/07/09 10:16:40;;;;;;;1.83;1.70;;;22.10;99.90;;;;;;5082130;28;20588;-82
2022/07/09 10:19:06;;;;;;;3.28;1.90;;;22.10;99.90;;;;;;5084039;28;20195;-82
2022/07/09 10:21:38;;;;;;;4.57;1.70;;;22.10;99.90;;;;;;5082087;28;20621;-80
2022/07/09 10:24:05;;;;;;;2.97;1.80;;;21.90;99.90;;;;;;5079214;28;20596;-81
2022/07/09 10:26:42;;;;;;;1.98;1.70;;;21.90;99.90;;;;;;5075561;28;20169;-77
2022/07/09 10:29:27;;;;;;;3.20;1.67;;;22.20;99.90;;;;;;5070255;28;20164;-78
2022/07/09 10:31:56;;;;;;;5.53;2.10;;;22.50;99.90;;;;;;5071460;28;20204;-77
2022/07/09 10:34:37;;;;;;;6.75;1.70;;;22.90;99.90;;;;;;5071681;28;20203;-78
2022/07/09 10:37:04;;;;;;;1.90;1.75;;;23.30;99.90;;;;;;5071594;28;20640;-77
2022/07/09 10:39:30;;;;;;;2.53;1.90;;;23.40;99.90;;;;;;5071375;28;20165;-77
2022/07/09 10:42:21;;;;;;;3.45;2.17;;;23.20;99.90;;;;;;5071644;28;20169;-77
2022/07/09 10:44:49;;;;;;;2.58;1.60;;;22.90;99.90;;;;;;5059437;28;20176;-77
2022/07/09 10:47:15;;;;;;;2.95;1.73;;;22.90;99.90;;;;;;5071124;28;20268;-77
2022/07/09 10:49:41;;;;;;;1.90;1.75;;;23.10;99.90;;;;;;5070969;28;20184;-76
2022/07/09 10:52:07;;;;;;;5.03;1.90;;;23.10;99.90;;;;;;5070610;28;20254;-77
2022/07/09 10:54:34;;;;;;;5.47;2.70;;;23.30;99.90;;;;;;5070893;28;20188;-78
2022/07/09 10:57:00;;;;;;;3.28;1.70;;;23.20;99.90;;;;;;5071071;28;20161;-78
2022/07/09 10:59:26;;;;;;;2.55;1.58;;;23.50;99.90;;;;;;5070941;28;20169;-79
2022/07/09 11:01:52;;;;;;;3.80;2.00;;;23.30;99.90;;;;;;5071015;28;20264;-79
2022/07/09 11:04:48;;;;;;;3.17;2.00;;;23.20;99.90;;;;;;5070661;28;20279;-78
2022/07/09 11:07:22;;;;;;;2.15;1.90;;;23.10;99.90;;;;;;5068797;28;20193;-77
2022/07/09 11:09:49;;;;;;;2.10;1.90;;;23.10;99.90;;;;;;5070915;28;20797;-78
2022/07/09 11:12:20;;;;;;;3.25;1.83;;;23.70;99.90;;;;;;5070383;28;20291;-78
2022/07/09 11:14:47;;;;;;;5.25;2.30;;;23.80;99.90;;;;;;5071754;28;20181;-79
2022/07/09 11:17:17;;;;;;;2.17;1.90;;;24.10;99.90;;;;;;5070970;28;20302;-78
2022/07/09 11:19:42;;;;;;;4.75;2.45;;;24.80;99.90;;;;;;5075012;28;20802;-79
2022/07/09 11:22:08;;;;;;;5.60;1.95;;;25.00;99.90;;;;;;5075197;28;20187;-80
2022/07/09 11:24:34;;;;;;;2.63;1.90;;;25.40;99.90;;;;;;5071958;28;20671;-79
2022/07/09 11:27:07;;;;;;;5.03;2.10;;;25.60;99.90;;;;;;5071777;28;20179;-79
2022/07/09 11:29:33;;;;;;;3.72;1.80;;;25.70;99.90;;;;;;5074133;28;20194;-81
2022/07/09 11:32:01;;;;;;;3.13;1.80;;;25.80;99.70;;;;;;5072014;28;20200;-80
2022/07/09 11:34:27;;;;;;;1.95;1.80;;;25.80;99.80;;;;;;5099181;22;20724;-79
2022/07/09 11:36:54;;;;;;;3.00;1.80;;;25.90;99.10;;;;;;5073878;28;20223;-82
2022/07/09 11:39:30;;;;;;;2.97;1.90;;;25.90;98.20;;;;;;5078148;28;20160;-82
2022/07/09 11:41:57;;;;;;;2.22;1.60;;;25.70;98.50;;;;;;5079675;28;20199;-82
2022/07/09 11:44:24;;;;;;;5.70;1.65;;;26.10;98.90;;;;;;5079958;28;20165;-82
2022/07/09 11:47:09;;;;;;;2.22;1.70;;;26.20;98.00;;;;;;5080289;28;20228;-82
2022/07/09 11:49:40;;;;;;;2.38;1.70;;;26.30;96.90;;;;;;5080359;28;20168;-84
2022/07/09 11:52:20;;;;;;;1.88;1.50;;;25.30;97.20;;;;;;5079860;28;20199;-83
2022/07/09 11:54:57;;;;;;;1.60;1.50;;;25.00;97.20;;;;;;5077005;28;20168;-83
2022/07/09 11:57:23;;;;;;;2.08;1.67;;;24.60;97.50;;;;;;5076104;28;20198;-82
2022/07/09 11:59:48;;;;;;;1.75;1.65;;;24.60;97.10;;;;;;5078033;28;20173;-82
2022/07/09 12:02:31;;;;;;;1.65;1.50;;;25.00;97.00;;;;;;5077060;28;20207;-83
2022/07/09 12:05:03;;;;;;;1.80;1.70;;;25.30;96.90;;;;;;5077387;28;20226;-81
2022/07/09 12:07:29;;;;;;;2.05;1.40;;;25.20;96.50;;;;;;5080053;28;20717;-81
2022/07/09 12:10:06;;;;;;;2.80;1.48;;;25.30;96.60;;;;;;5079508;28;20180;-80
2022/07/09 12:12:32;;;;;;;1.70;1.60;;;25.40;96.40;;;;;;5080558;28;20200;-82
2022/07/09 12:14:59;;;;;;;1.83;1.60;;;25.30;96.10;;;;;;5080652;28;20168;-81
2022/07/09 12:17:26;;;;;;;4.35;1.50;;;25.50;96.50;;;;;;5078759;28;20210;-80
2022/07/09 12:19:53;;;;;;;2.00;1.50;;;25.10;96.60;;;;;;5079540;28;20228;-80
2022/07/09 12:22:20;;;;;;;1.85;1.60;;;25.30;96.10;;;;;;5078618;28;20289;-82
2022/07/09 12:24:46;;;;;;;1.58;1.48;;;24.80;95.90;;;;;;5081938;28;20172;-83
2022/07/09 12:27:11;;;;;;;1.60;1.50;;;24.70;96.00;;;;;;5081615;28;20258;-81
2022/07/09 12:29:37;;;;;;;1.95;1.60;;;24.80;95.70;;;;;;5079076;28;20638;-83
2022/07/09 12:32:03;;;;;;;2.00;1.63;;;24.60;95.90;;;;;;5079523;28;20297;-81
2022/07/09 12:34:29;;;;;;;2.88;1.60;;;24.70;96.50;;;;;;5080435;28;20194;-82
2022/07/09 12:36:55;;;;;;;2.30;1.73;;;24.70;96.40;;;;;;5081267;28;20168;-81
2022/07/09 12:39:20;;;;;;;1.83;1.65;;;25.20;96.60;;;;;;5079841;28;20165;-83
2022/07/09 12:41:46;;;;;;;2.47;1.70;;;25.10;96.10;;;;;;5078518;28;20246;-82
2022/07/09 12:44:12;;;;;;;1.85;1.50;;;25.00;96.20;;;;;;5079017;28;20177;-83